Hollins College, Virginia
Current Conditions -  °F | °C
As of 11:54 AM on Saturday 22 Nov 2014 (Local Time) from KROA Reporting Station
Broken Clouds Broken Clouds  
Wind Chill: 37°   Ceiling: 30000
Heat Index: 41°   Visibility: 10mi
Dew Point: 12°   Wind: 6mph
Humidity: 31%   Direction: NA
Pressure: 30.45"   Gusts: NA
Location:  37.3533°N, 79.9353°W
Report Text: KROA 221654Z VRB05KT 10SM SCT250 BKN300 05/M11 A3045 RMK AO2 SLP319 T00501111
Loading
Personal Weather Stations






























Interactive Weather Map New forecast layout! Learn more

10-Day Weather Forecast

Advertisements
Track Severe Weather on mobile